Time;durP1;ratioP1;P1;durP2;ratioP2;P2;SDS_P1;SDS_P2;PMS_P1;PMS_P2;Temp;Humidity;BMP_temperature;BMP_pressure;BME280_temperature;BME280_humidity;BME280_pressure;Samples;Min_cycle;Max_cycle;Signal;HPM_P1;HPM_P2
2022/10/19 00:02:03;;;;;;;17.00;11.03;;;6.80;99.90;;;;;;2615564;54;20154;-80
2022/10/19 00:04:28;;;;;;;14.27;11.90;;;6.70;99.90;;;;;;2615451;54;20167;-81
2022/10/19 00:06:54;;;;;;;15.13;11.30;;;6.70;99.90;;;;;;2613528;54;20726;-81
2022/10/19 00:09:21;;;;;;;22.00;12.17;;;6.60;99.90;;;;;;2615549;54;20154;-79
2022/10/19 00:11:48;;;;;;;13.27;10.37;;;6.60;99.90;;;;;;2614379;54;20158;-78
2022/10/19 00:14:20;;;;;;;22.10;12.17;;;6.60;99.90;;;;;;2615436;54;20415;-80
2022/10/19 00:16:47;;;;;;;15.33;11.60;;;6.50;99.90;;;;;;2614076;47;20432;-80
2022/10/19 00:19:21;;;;;;;16.70;10.97;;;6.60;99.90;;;;;;2615025;54;20405;-81
2022/10/19 00:21:47;;;;;;;16.63;11.77;;;6.50;99.90;;;;;;2613317;47;20402;-80
2022/10/19 00:24:13;;;;;;;16.30;11.93;;;6.40;99.90;;;;;;2613663;54;20415;-81
2022/10/19 00:26:39;;;;;;;17.70;12.30;;;6.40;99.90;;;;;;2613783;54;20411;-82
2022/10/19 00:29:04;;;;;;;12.60;10.67;;;6.30;99.90;;;;;;2614847;54;20155;-79
2022/10/19 00:31:30;;;;;;;14.80;10.87;;;6.30;99.90;;;;;;2614293;54;20182;-79
2022/10/19 00:33:57;;;;;;;15.37;10.23;;;6.30;99.90;;;;;;2614707;54;20155;-81
2022/10/19 00:36:35;;;;;;;18.73;11.93;;;6.40;99.90;;;;;;2614580;54;20490;-81
2022/10/19 00:39:02;;;;;;;21.20;11.00;;;6.40;99.90;;;;;;2615325;39;20808;-78
2022/10/19 00:41:32;;;;;;;14.13;10.77;;;6.30;99.90;;;;;;2614283;54;20399;-79
2022/10/19 00:44:11;;;;;;;12.17;9.60;;;6.30;99.90;;;;;;2613056;54;20430;-80
2022/10/19 00:46:39;;;;;;;14.13;10.20;;;6.20;99.90;;;;;;2614877;54;20401;-82
2022/10/19 00:49:18;;;;;;;15.30;11.57;;;6.20;99.90;;;;;;2614932;54;20395;-81
2022/10/19 00:51:51;;;;;;;14.90;10.57;;;6.20;99.90;;;;;;2615394;54;20450;-81
2022/10/19 00:54:17;;;;;;;15.20;10.70;;;6.20;99.90;;;;;;2614341;54;20425;-79
2022/10/19 00:56:45;;;;;;;11.90;9.97;;;6.20;99.90;;;;;;2613224;54;20406;-80
2022/10/19 00:59:14;;;;;;;22.43;11.67;;;6.30;99.90;;;;;;2613104;47;20399;-80
2022/10/19 01:05:08;;;;;;;15.37;10.07;;;6.10;99.90;;;;;;2616203;54;20374;-80
2022/10/19 01:14:42;;;;;;;15.07;10.43;;;6.10;99.90;;;;;;2614203;54;20529;-82
2022/10/19 01:17:19;;;;;;;15.20;10.47;;;6.10;99.90;;;;;;2612640;47;20415;-81
2022/10/19 01:19:57;;;;;;;12.37;9.70;;;5.90;99.90;;;;;;2614910;54;20423;-81
2022/10/19 01:22:51;;;;;;;16.00;10.53;;;5.80;99.90;;;;;;2614375;54;20431;-80
2022/10/19 01:25:51;;;;;;;18.53;11.13;;;5.80;99.90;;;;;;2610956;54;20518;-79
2022/10/19 01:28:40;;;;;;;11.47;10.30;;;5.80;99.90;;;;;;2612145;54;20414;-81
2022/10/19 01:31:20;;;;;;;30.67;12.07;;;5.80;99.90;;;;;;2613885;54;20436;-81
2022/10/19 01:34:05;;;;;;;18.03;11.30;;;5.80;99.90;;;;;;2613121;39;21203;-81
2022/10/19 01:36:41;;;;;;;16.07;10.70;;;5.80;99.90;;;;;;2612054;54;20430;-80
2022/10/19 01:39:33;;;;;;;24.83;10.97;;;5.80;99.90;;;;;;2613482;54;20402;-79
2022/10/19 01:42:21;;;;;;;14.80;11.23;;;5.80;99.90;;;;;;2612471;47;21019;-82
2022/10/19 01:45:06;;;;;;;13.27;10.40;;;5.80;99.90;;;;;;2613369;54;20430;-81
2022/10/19 01:47:40;;;;;;;12.60;9.77;;;5.90;99.90;;;;;;2612044;54;20950;-79
2022/10/19 01:50:09;;;;;;;11.80;10.20;;;5.70;99.90;;;;;;2611487;54;20409;-78
2022/10/19 01:52:36;;;;;;;15.17;10.33;;;5.70;99.90;;;;;;2613135;54;20418;-81
2022/10/19 01:55:03;;;;;;;12.00;10.67;;;5.70;99.90;;;;;;2613041;54;20399;-80
2022/10/19 01:57:34;;;;;;;15.23;11.10;;;5.70;99.90;;;;;;2612380;54;20558;-81
2022/10/19 02:00:06;;;;;;;14.57;10.70;;;5.70;99.90;;;;;;2612627;54;20394;-81
2022/10/19 02:02:35;;;;;;;17.20;10.40;;;5.60;99.90;;;;;;2614133;39;20884;-81
2022/10/19 02:05:03;;;;;;;14.20;10.53;;;5.60;99.90;;;;;;2614560;54;20406;-81
2022/10/19 02:07:30;;;;;;;15.80;10.30;;;5.60;99.90;;;;;;2615135;39;20800;-81
2022/10/19 02:09:56;;;;;;;14.87;11.10;;;5.50;99.90;;;;;;2614369;54;20401;-81
2022/10/19 02:12:24;;;;;;;14.80;11.67;;;5.40;99.90;;;;;;2613863;54;20423;-82
2022/10/19 02:14:56;;;;;;;15.40;11.60;;;5.50;99.90;;;;;;2614281;54;20213;-81
2022/10/19 02:17:26;;;;;;;18.73;11.50;;;5.40;99.90;;;;;;2614555;54;20383;-81
2022/10/19 02:19:53;;;;;;;17.30;11.03;;;5.40;99.90;;;;;;2615065;54;20403;-81
2022/10/19 02:22:21;;;;;;;21.30;11.10;;;5.30;99.90;;;;;;2615494;54;20395;-79
2022/10/19 02:24:46;;;;;;;17.70;10.60;;;5.40;99.90;;;;;;2613953;39;21281;-79
2022/10/19 02:27:12;;;;;;;13.93;11.20;;;5.30;99.90;;;;;;2613926;39;20871;-81
2022/10/19 02:29:39;;;;;;;18.60;11.03;;;5.20;99.90;;;;;;2616051;47;20294;-81
2022/10/19 02:32:08;;;;;;;13.30;10.80;;;5.30;99.90;;;;;;2615149;54;21461;-81
2022/10/19 02:34:35;;;;;;;17.13;11.00;;;5.30;99.90;;;;;;2617868;54;20423;-81
2022/10/19 02:37:00;;;;;;;14.00;11.17;;;5.20;99.90;;;;;;2619673;54;20420;-81
2022/10/19 02:39:26;;;;;;;17.30;13.20;;;5.30;99.90;;;;;;2617644;47;20579;-81
2022/10/19 02:41:57;;;;;;;16.67;11.50;;;5.20;99.90;;;;;;2616581;54;20997;-82
2022/10/19 02:44:32;;;;;;;20.00;12.13;;;5.20;99.90;;;;;;2615536;54;20166;-82
2022/10/19 02:47:10;;;;;;;15.63;11.63;;;5.20;99.90;;;;;;2617244;39;20791;-77
2022/10/19 02:49:37;;;;;;;15.80;11.77;;;5.20;99.90;;;;;;2612287;54;20518;-78
2022/10/19 02:52:06;;;;;;;15.27;11.23;;;5.30;99.90;;;;;;2614121;54;20414;-79
2022/10/19 02:54:32;;;;;;;14.23;11.50;;;5.40;99.90;;;;;;2616144;54;20386;-79
2022/10/19 02:56:58;;;;;;;16.10;11.67;;;5.30;99.90;;;;;;2616131;54;20420;-78
2022/10/19 02:59:24;;;;;;;14.90;11.17;;;5.10;99.90;;;;;;2613656;54;20410;-77
2022/10/19 03:01:52;;;;;;;15.87;12.27;;;5.00;99.90;;;;;;2613697;54;20262;-77
2022/10/19 03:04:18;;;;;;;18.60;12.33;;;5.00;99.90;;;;;;2615020;39;20891;-77
2022/10/19 03:06:43;;;;;;;16.30;11.20;;;5.10;99.90;;;;;;2613360;54;20394;-78
2022/10/19 03:09:09;;;;;;;20.97;11.40;;;5.00;99.90;;;;;;2614430;54;20399;-80
2022/10/19 03:11:35;;;;;;;16.87;11.97;;;4.90;99.90;;;;;;2614477;47;20170;-80
2022/10/19 03:14:01;;;;;;;17.20;11.77;;;4.90;99.90;;;;;;2614195;54;20463;-82
2022/10/19 03:16:26;;;;;;;13.23;11.63;;;4.90;99.90;;;;;;2615058;54;20182;-81
2022/10/19 03:18:53;;;;;;;15.27;11.20;;;5.00;99.90;;;;;;2613001;54;20179;-81
2022/10/19 03:21:19;;;;;;;13.43;11.67;;;4.90;99.90;;;;;;2613977;47;20177;-81
2022/10/19 03:23:45;;;;;;;15.70;12.40;;;4.90;99.90;;;;;;2613666;54;20416;-81
2022/10/19 03:26:15;;;;;;;17.67;11.60;;;4.90;99.90;;;;;;2614854;54;20548;-81
2022/10/19 03:28:41;;;;;;;18.10;11.67;;;4.90;99.90;;;;;;2613201;48;20411;-81
2022/10/19 03:31:06;;;;;;;19.53;13.00;;;4.90;99.90;;;;;;2614541;54;20415;-81
2022/10/19 03:33:32;;;;;;;16.97;12.43;;;4.80;99.90;;;;;;2613281;54;20166;-81
2022/10/19 03:36:19;;;;;;;24.27;14.30;;;4.90;99.90;;;;;;2614584;54;20153;-81
2022/10/19 03:38:45;;;;;;;28.43;13.50;;;4.80;99.90;;;;;;2613744;54;20151;-82
2022/10/19 03:41:12;;;;;;;16.53;13.37;;;4.80;99.90;;;;;;2613497;47;20422;-81
2022/10/19 03:43:37;;;;;;;17.00;13.07;;;4.70;99.90;;;;;;2612547;54;20423;-80
2022/10/19 03:46:03;;;;;;;16.37;12.50;;;4.70;99.90;;;;;;2613885;54;20411;-80
2022/10/19 03:48:30;;;;;;;15.80;13.30;;;4.70;99.90;;;;;;2612690;54;21145;-79
2022/10/19 03:51:03;;;;;;;22.77;12.67;;;4.90;99.90;;;;;;2614307;39;20558;-80
2022/10/19 03:53:30;;;;;;;19.33;13.70;;;4.80;99.90;;;;;;2613606;54;20432;-82
2022/10/19 03:56:06;;;;;;;15.60;12.63;;;4.80;99.90;;;;;;2614178;54;20443;-81
2022/10/19 03:58:34;;;;;;;19.30;12.20;;;4.70;99.90;;;;;;2613584;54;20429;-82
2022/10/19 04:01:01;;;;;;;20.57;12.93;;;4.80;99.90;;;;;;2613487;54;20404;-81
2022/10/19 04:03:27;;;;;;;18.50;13.13;;;4.70;99.90;;;;;;2613787;54;20415;-79
2022/10/19 04:06:01;;;;;;;16.20;13.63;;;4.60;99.90;;;;;;2611947;54;20398;-79
2022/10/19 04:08:27;;;;;;;22.23;12.33;;;4.60;99.90;;;;;;2613959;54;20158;-77
2022/10/19 04:10:58;;;;;;;17.60;13.17;;;4.50;99.90;;;;;;2612030;54;20577;-77
2022/10/19 04:13:23;;;;;;;16.60;13.50;;;4.70;99.90;;;;;;2613395;54;20205;-82
2022/10/19 04:15:49;;;;;;;27.83;14.13;;;4.60;99.90;;;;;;2613288;47;20407;-82
2022/10/19 04:18:15;;;;;;;16.20;13.90;;;4.50;99.90;;;;;;2614080;54;20262;-82
2022/10/19 04:20:42;;;;;;;21.70;15.50;;;4.60;99.90;;;;;;2613170;54;20181;-82
2022/10/19 04:23:08;;;;;;;18.83;14.20;;;4.60;99.90;;;;;;2611134;54;20174;-81
2022/10/19 04:25:34;;;;;;;17.30;12.37;;;4.60;99.90;;;;;;2613264;54;20522;-80
2022/10/19 04:27:59;;;;;;;16.70;13.80;;;4.70;99.90;;;;;;2613238;54;20193;-80
2022/10/19 04:30:25;;;;;;;18.13;13.83;;;4.70;99.90;;;;;;2614607;47;20165;-80
2022/10/19 04:32:51;;;;;;;21.07;14.47;;;4.70;99.90;;;;;;2612709;54;20254;-81
2022/10/19 04:35:16;;;;;;;21.90;13.50;;;4.60;99.90;;;;;;2613763;54;20158;-80
2022/10/19 04:37:42;;;;;;;18.70;13.57;;;4.60;99.90;;;;;;2613124;54;20177;-82
2022/10/19 04:40:08;;;;;;;18.40;15.70;;;4.60;99.90;;;;;;2612877;54;20177;-83
2022/10/19 04:42:34;;;;;;;17.70;13.53;;;4.60;99.90;;;;;;2613355;54;20159;-82
2022/10/19 04:44:59;;;;;;;17.53;13.10;;;4.70;99.90;;;;;;2613710;47;20473;-82
2022/10/19 04:47:25;;;;;;;20.67;15.47;;;4.70;99.90;;;;;;2614069;54;20177;-77
2022/10/19 04:49:51;;;;;;;21.43;15.07;;;4.80;99.90;;;;;;2613628;47;20946;-78
2022/10/19 04:52:16;;;;;;;26.80;16.20;;;5.00;99.90;;;;;;2611982;54;20159;-79
2022/10/19 04:54:42;;;;;;;34.43;19.97;;;5.30;99.90;;;;;;2614188;54;20182;-81
2022/10/19 04:57:08;;;;;;;44.87;22.07;;;5.70;99.90;;;;;;2613812;47;20189;-82
2022/10/19 04:59:34;;;;;;;51.83;25.23;;;5.80;99.90;;;;;;2613929;39;20643;-82
2022/10/19 05:02:00;;;;;;;45.77;23.90;;;6.00;99.90;;;;;;2613476;54;20158;-81
2022/10/19 05:04:26;;;;;;;41.80;24.13;;;6.10;99.90;;;;;;2614222;54;20390;-82
2022/10/19 05:06:51;;;;;;;39.27;21.43;;;5.90;99.90;;;;;;2614489;54;20670;-81
2022/10/19 05:09:17;;;;;;;43.07;23.10;;;5.80;99.90;;;;;;2614576;47;20179;-81
2022/10/19 05:11:43;;;;;;;34.00;22.10;;;5.90;99.90;;;;;;2613633;54;20158;-80
2022/10/19 05:14:08;;;;;;;48.67;21.23;;;5.80;99.90;;;;;;2615228;39;20585;-82
2022/10/19 05:16:34;;;;;;;24.57;18.67;;;5.80;99.90;;;;;;2614578;54;20159;-81
2022/10/19 05:19:00;;;;;;;33.30;19.30;;;5.90;99.90;;;;;;2615240;54;20155;-82
2022/10/19 05:21:27;;;;;;;29.50;19.00;;;5.90;99.90;;;;;;2613979;54;20238;-83
2022/10/19 05:23:54;;;;;;;24.63;18.70;;;6.00;99.90;;;;;;2614646;54;20428;-77
2022/10/19 05:26:23;;;;;;;27.70;17.47;;;5.90;99.90;;;;;;2613176;54;20432;-77
2022/10/19 05:28:58;;;;;;;31.67;18.30;;;5.70;99.90;;;;;;2613867;54;20435;-77
2022/10/19 05:31:26;;;;;;;25.57;17.80;;;5.70;99.90;;;;;;2614135;54;20398;-78
2022/10/19 05:33:52;;;;;;;25.17;18.20;;;5.60;99.90;;;;;;2613451;54;20511;-78
2022/10/19 05:36:21;;;;;;;28.97;19.30;;;5.60;99.90;;;;;;2612949;54;20511;-78
2022/10/19 05:38:49;;;;;;;25.63;16.87;;;5.80;99.90;;;;;;2611190;54;20154;-80
2022/10/19 05:41:15;;;;;;;28.50;19.57;;;5.80;99.90;;;;;;2612025;54;20474;-78
2022/10/19 05:43:42;;;;;;;30.03;19.07;;;5.90;99.90;;;;;;2613957;54;20438;-81
2022/10/19 05:46:11;;;;;;;31.37;19.10;;;6.00;99.90;;;;;;2613537;54;20416;-83
2022/10/19 05:48:37;;;;;;;30.30;20.27;;;6.10;99.90;;;;;;2613927;54;20435;-78
2022/10/19 05:51:05;;;;;;;35.70;19.67;;;6.20;99.90;;;;;;2616195;54;20431;-78
2022/10/19 05:53:32;;;;;;;31.07;20.23;;;6.00;99.90;;;;;;2614467;47;20442;-78
2022/10/19 05:55:58;;;;;;;35.30;20.57;;;6.00;99.90;;;;;;2613143;54;20429;-79
2022/10/19 05:58:23;;;;;;;34.00;20.20;;;6.00;99.90;;;;;;2612102;54;20479;-81
2022/10/19 06:00:58;;;;;;;35.73;19.83;;;6.00;99.90;;;;;;2613422;54;20266;-81
2022/10/19 06:03:24;;;;;;;26.57;20.07;;;6.00;99.90;;;;;;2613620;54;20423;-80
2022/10/19 06:05:51;;;;;;;28.47;19.00;;;5.90;99.90;;;;;;2611026;54;20416;-81
2022/10/19 06:08:18;;;;;;;33.00;21.33;;;5.80;99.90;;;;;;2610568;54;20405;-79
2022/10/19 06:10:45;;;;;;;36.70;21.20;;;5.70;99.90;;;;;;2612239;54;20430;-78
2022/10/19 06:13:11;;;;;;;35.70;21.47;;;5.70;99.90;;;;;;2612995;54;20511;-82
2022/10/19 06:15:39;;;;;;;28.97;20.73;;;5.80;99.90;;;;;;2611425;39;21086;-81
2022/10/19 06:18:09;;;;;;;26.83;19.50;;;5.80;99.90;;;;;;2612899;54;21863;-79
2022/10/19 06:20:36;;;;;;;30.87;18.93;;;5.80;99.90;;;;;;2612117;54;20415;-79
2022/10/19 06:23:04;;;;;;;38.00;23.17;;;5.60;99.90;;;;;;2613009;54;20554;-79
2022/10/19 06:25:30;;;;;;;35.83;21.57;;;5.60;99.90;;;;;;2612660;54;20514;-79
2022/10/19 06:27:56;;;;;;;32.00;22.00;;;5.40;99.90;;;;;;2612410;39;20819;-81
2022/10/19 06:30:22;;;;;;;29.57;19.43;;;5.50;99.90;;;;;;2611162;54;22051;-81
2022/10/19 06:32:48;;;;;;;32.53;21.17;;;5.50;99.90;;;;;;2610732;54;20423;-82
2022/10/19 06:35:14;;;;;;;31.30;20.37;;;5.40;99.90;;;;;;2613793;54;20197;-83
2022/10/19 06:37:41;;;;;;;31.27;20.63;;;5.50;99.90;;;;;;2612245;54;20158;-83
2022/10/19 06:40:07;;;;;;;38.10;20.90;;;5.60;99.90;;;;;;2614126;54;20406;-83
2022/10/19 06:42:33;;;;;;;30.20;20.80;;;5.70;99.90;;;;;;2611698;54;20985;-78
2022/10/19 06:44:58;;;;;;;37.20;21.00;;;5.80;99.90;;;;;;2612686;54;20399;-78
2022/10/19 06:47:30;;;;;;;29.97;21.93;;;5.90;99.90;;;;;;2611847;54;20158;-77
2022/10/19 06:49:56;;;;;;;29.47;20.90;;;5.90;99.90;;;;;;2630469;36;20620;-77
2022/10/19 06:52:22;;;;;;;33.07;22.33;;;6.20;99.90;;;;;;2612072;54;20427;-78
2022/10/19 06:54:48;;;;;;;31.97;22.57;;;6.40;99.90;;;;;;2612701;54;21449;-78
2022/10/19 06:57:13;;;;;;;38.77;23.10;;;6.50;99.90;;;;;;2612402;47;20431;-83
2022/10/19 06:59:39;;;;;;;34.33;21.57;;;6.70;99.90;;;;;;2616059;54;20753;-83
2022/10/19 07:02:05;;;;;;;33.73;21.27;;;7.30;99.90;;;;;;2616411;31;20664;-82
2022/10/19 07:04:31;;;;;;;31.70;18.73;;;7.60;99.90;;;;;;2614086;39;20718;-82
2022/10/19 07:06:56;;;;;;;31.10;21.10;;;8.20;99.90;;;;;;2613041;54;20419;-81
2022/10/19 07:09:22;;;;;;;32.90;19.03;;;8.60;99.90;;;;;;2611365;54;20155;-82
2022/10/19 07:11:48;;;;;;;26.87;16.93;;;8.90;99.90;;;;;;2611515;54;20163;-82
2022/10/19 07:14:13;;;;;;;26.43;16.33;;;9.30;99.90;;;;;;2612169;54;20318;-78
2022/10/19 07:16:39;;;;;;;25.10;16.80;;;9.40;99.90;;;;;;2613261;47;20166;-79
2022/10/19 07:19:05;;;;;;;19.90;14.33;;;9.70;99.90;;;;;;2613255;39;22758;-78
2022/10/19 07:21:31;;;;;;;23.40;19.07;;;10.10;99.90;;;;;;2612722;54;20193;-79
2022/10/19 07:23:57;;;;;;;22.30;16.53;;;10.30;99.90;;;;;;2612239;54;20162;-81
2022/10/19 07:26:26;;;;;;;18.40;16.00;;;10.40;99.90;;;;;;2613938;54;21019;-82
2022/10/19 07:28:54;;;;;;;19.80;17.17;;;10.60;99.90;;;;;;2615015;54;20151;-82
2022/10/19 07:31:22;;;;;;;25.43;18.03;;;10.80;99.90;;;;;;2618540;54;20416;-81
2022/10/19 07:33:52;;;;;;;19.97;17.53;;;11.20;99.90;;;;;;2614670;46;21081;-81
2022/10/19 07:36:21;;;;;;;20.83;16.43;;;11.30;99.90;;;;;;2615841;54;20446;-82
2022/10/19 07:38:47;;;;;;;17.93;16.03;;;11.40;99.90;;;;;;2615174;47;20435;-81
2022/10/19 07:41:18;;;;;;;20.87;14.83;;;11.40;99.90;;;;;;2615626;54;20416;-82
2022/10/19 07:43:45;;;;;;;17.40;14.00;;;11.30;99.90;;;;;;2614426;54;20273;-79
2022/10/19 07:46:19;;;;;;;19.30;13.90;;;11.20;99.90;;;;;;2612393;47;20428;-79
2022/10/19 07:48:48;;;;;;;16.93;15.13;;;11.30;99.90;;;;;;2617499;54;20419;-83
2022/10/19 07:51:15;;;;;;;21.43;15.00;;;11.90;99.90;;;;;;2615436;54;20554;-84
2022/10/19 07:53:42;;;;;;;20.07;14.33;;;12.10;99.90;;;;;;2613315;54;20498;-80
2022/10/19 07:56:18;;;;;;;17.33;14.00;;;12.00;99.90;;;;;;2610324;54;20462;-79
2022/10/19 07:58:44;;;;;;;22.13;14.73;;;12.40;99.90;;;;;;2609920;39;20766;-79
2022/10/19 08:01:12;;;;;;;18.87;13.83;;;12.80;99.90;;;;;;2611551;54;20473;-80
2022/10/19 08:03:38;;;;;;;18.03;14.70;;;12.50;99.90;;;;;;2613791;54;20185;-81
2022/10/19 08:06:09;;;;;;;17.10;14.03;;;12.70;99.90;;;;;;2612877;54;20519;-81
2022/10/19 08:08:35;;;;;;;20.87;14.10;;;12.90;99.90;;;;;;2613721;54;20436;-79
2022/10/19 08:11:07;;;;;;;21.47;14.77;;;12.90;99.90;;;;;;2613588;54;20420;-79
2022/10/19 08:13:33;;;;;;;18.43;13.90;;;13.60;99.90;;;;;;2614374;54;20459;-79
2022/10/19 08:15:59;;;;;;;19.70;14.00;;;13.10;99.90;;;;;;2611599;54;20439;-79
2022/10/19 08:18:24;;;;;;;15.40;13.80;;;13.00;99.90;;;;;;2612881;47;20430;-78
2022/10/19 08:20:50;;;;;;;19.63;13.00;;;13.40;99.90;;;;;;2612690;47;20178;-79
2022/10/19 08:23:16;;;;;;;16.57;13.63;;;13.60;99.90;;;;;;2612882;46;20170;-81
2022/10/19 08:25:41;;;;;;;16.80;12.63;;;13.70;99.90;;;;;;2614150;54;20173;-80
2022/10/19 08:28:07;;;;;;;15.07;13.40;;;13.30;99.90;;;;;;2612662;54;20170;-81
2022/10/19 08:30:34;;;;;;;15.37;11.73;;;14.00;99.90;;;;;;2612551;54;20201;-82
2022/10/19 08:33:01;;;;;;;21.73;13.03;;;14.00;99.90;;;;;;2611432;54;20159;-78
2022/10/19 08:35:29;;;;;;;18.50;12.43;;;14.50;99.90;;;;;;2613229;54;20447;-80
2022/10/19 08:37:55;;;;;;;13.77;11.37;;;14.90;99.90;;;;;;2613992;31;20894;-79
2022/10/19 08:40:27;;;;;;;13.67;11.23;;;15.50;99.90;;;;;;2612803;54;20420;-80
2022/10/19 08:43:11;;;;;;;13.50;12.17;;;15.90;99.90;;;;;;2610826;54;20157;-81
2022/10/19 08:46:04;;;;;;;11.87;10.60;;;15.90;99.90;;;;;;2611341;54;20427;-80
2022/10/19 08:48:35;;;;;;;17.07;11.23;;;15.90;99.90;;;;;;2614458;54;20474;-79
2022/10/19 08:51:04;;;;;;;13.77;11.33;;;16.30;99.90;;;;;;2611948;54;20447;-79
2022/10/19 08:53:38;;;;;;;10.47;9.57;;;15.90;99.90;;;;;;2613536;39;20930;-80
2022/10/19 08:56:06;;;;;;;16.63;9.93;;;16.00;99.90;;;;;;2613126;54;20478;-80
2022/10/19 08:58:57;;;;;;;10.70;7.90;;;17.20;97.30;;;;;;2611808;54;20430;-81
2022/10/19 09:01:41;;;;;;;11.07;7.40;;;17.00;95.80;;;;;;2611243;39;20782;-82
2022/10/19 09:04:36;;;;;;;12.40;7.40;;;16.50;96.00;;;;;;2611170;54;20539;-81
2022/10/19 09:07:08;;;;;;;10.43;9.33;;;16.60;86.20;;;;;;2612333;54;20447;-80
2022/10/19 09:09:41;;;;;;;9.90;7.60;;;16.50;91.70;;;;;;2612359;54;21220;-80
2022/10/19 09:12:13;;;;;;;10.00;8.23;;;16.50;92.70;;;;;;2610587;54;20470;-79
2022/10/19 09:14:56;;;;;;;8.80;7.50;;;15.10;98.30;;;;;;2611455;54;20458;-79
2022/10/19 09:17:24;;;;;;;8.20;7.33;;;15.60;96.60;;;;;;2613491;54;20446;-78
2022/10/19 09:19:50;;;;;;;7.90;7.30;;;16.20;92.10;;;;;;2613601;54;20592;-79
2022/10/19 09:22:30;;;;;;;12.80;7.93;;;17.00;87.90;;;;;;2614093;54;20478;-81
2022/10/19 09:25:04;;;;;;;10.80;6.33;;;16.20;87.90;;;;;;2614035;54;20440;-82
2022/10/19 09:27:38;;;;;;;8.10;6.90;;;16.30;70.80;;;;;;2614525;39;20798;-81
2022/10/19 09:30:16;;;;;;;7.50;6.67;;;16.80;80.20;;;;;;2614747;54;20409;-82
2022/10/19 09:32:42;;;;;;;9.93;6.50;;;16.40;80.00;;;;;;2613470;39;21339;-82
2022/10/19 09:35:29;;;;;;;10.20;7.50;;;16.10;80.90;;;;;;2615272;54;20435;-83
2022/10/19 09:37:55;;;;;;;11.70;6.83;;;17.30;59.10;;;;;;2614126;54;20163;-82
2022/10/19 09:40:27;;;;;;;7.67;6.00;;;18.30;53.60;;;;;;2613781;54;20431;-82
2022/10/19 09:42:57;;;;;;;7.27;6.67;;;17.00;57.60;;;;;;2608244;47;21095;-82
2022/10/19 09:45:39;;;;;;;6.10;5.60;;;18.00;48.60;;;;;;2612981;46;20443;-81
2022/10/19 09:51:50;;;;;;;9.90;5.87;;;16.60;54.00;;;;;;2614436;54;20390;-77
2022/10/19 09:57:48;;;;;;;10.90;5.83;;;17.60;52.70;;;;;;2615668;54;20396;-79
2022/10/19 10:03:42;;;;;;;6.43;5.50;;;16.50;57.70;;;;;;2616891;39;20481;-77
2022/10/19 10:09:31;;;;;;;5.53;5.10;;;17.00;49.80;;;;;;2616342;54;20367;-78
2022/10/19 10:15:24;;;;;;;6.37;5.73;;;18.10;42.10;;;;;;2617351;54;20384;-76
2022/10/19 10:31:41;;;;;;;6.27;5.77;;;18.10;38.50;;;;;;2615236;54;20395;-79
2022/10/19 10:43:57;;;;;;;8.47;6.87;;;19.30;38.50;;;;;;2613814;54;20427;-77
2022/10/19 10:47:20;;;;;;;7.77;6.90;;;18.70;39.80;;;;;;2615022;54;20486;-77
2022/10/19 10:56:32;;;;;;;9.60;6.70;;;18.60;38.60;;;;;;2613996;54;20391;-78
2022/10/19 11:35:07;;;;;;;6.90;6.50;;;17.30;34.90;;;;;;2614573;39;20854;-76
2022/10/19 12:14:17;;;;;;;8.53;7.90;;;20.00;36.30;;;;;;2614911;54;20932;-79
2022/10/19 12:26:35;;;;;;;9.73;8.03;;;19.60;32.00;;;;;;2612575;54;20391;-78
2022/10/19 12:32:23;;;;;;;8.93;7.93;;;20.80;29.90;;;;;;2615181;54;20391;-78
2022/10/19 12:38:11;;;;;;;10.03;6.93;;;20.70;28.50;;;;;;2613914;54;20442;-78
2022/10/19 12:47:18;;;;;;;7.80;7.30;;;20.40;28.60;;;;;;2613792;54;20430;-75
2022/10/19 12:49:50;;;;;;;8.07;7.63;;;20.20;26.90;;;;;;2614964;54;20478;-77
2022/10/19 12:55:38;;;;;;;7.70;7.23;;;22.40;25.70;;;;;;2614096;54;20382;-77
2022/10/19 13:07:53;;;;;;;8.67;8.20;;;21.00;25.80;;;;;;2613464;54;20390;-77
2022/10/19 13:20:17;;;;;;;10.17;9.30;;;20.80;26.90;;;;;;2615627;54;20464;-78
2022/10/19 13:32:55;;;;;;;8.50;7.90;;;22.00;24.60;;;;;;2616943;54;20397;-79
2022/10/19 13:38:57;;;;;;;8.93;8.30;;;21.70;25.70;;;;;;2615306;54;20123;-79
2022/10/19 13:44:46;;;;;;;8.77;8.13;;;22.50;25.60;;;;;;2615326;54;20431;-79
2022/10/19 13:47:17;;;;;;;8.67;8.07;;;22.20;24.70;;;;;;2614735;39;20822;-79
2022/10/19 14:00:51;;;;;;;9.23;8.60;;;20.40;27.70;;;;;;2611923;54;21449;-77
2022/10/19 14:06:41;;;;;;;9.17;8.37;;;21.30;26.80;;;;;;2614332;54;20444;-79
2022/10/19 14:12:30;;;;;;;13.90;8.90;;;21.80;27.90;;;;;;2613671;54;20436;-78
2022/10/19 14:15:33;;;;;;;9.27;8.50;;;20.70;26.90;;;;;;2613157;54;20419;-79
2022/10/19 14:17:59;;;;;;;9.47;8.50;;;20.80;28.90;;;;;;2614905;54;20462;-79
2022/10/19 14:23:47;;;;;;;10.00;8.30;;;20.10;33.30;;;;;;2615521;54;20392;-79
2022/10/19 14:42:22;;;;;;;7.60;7.10;;;19.00;39.30;;;;;;2617580;54;20407;-78
2022/10/19 14:58:07;;;;;;;9.00;8.30;;;17.10;50.30;;;;;;2615980;54;20909;-78
2022/10/19 15:03:55;;;;;;;10.40;8.63;;;17.20;53.90;;;;;;2615636;54;20384;-79
2022/10/19 15:20:47;;;;;;;8.20;7.40;;;15.80;82.90;;;;;;2613834;54;20471;-77
2022/10/19 15:26:34;;;;;;;7.37;6.77;;;16.40;77.40;;;;;;2614036;39;20809;-76
2022/10/19 15:32:24;;;;;;;9.40;7.17;;;17.30;73.80;;;;;;2615263;54;20130;-77
2022/10/19 15:38:13;;;;;;;7.20;6.50;;;17.40;62.20;;;;;;2614939;54;20540;-77
2022/10/19 15:44:03;;;;;;;6.57;6.00;;;16.50;77.50;;;;;;2615282;54;20478;-77
2022/10/19 15:47:19;;;;;;;9.03;6.77;;;16.60;77.60;;;;;;2614995;54;20392;-77
2022/10/19 15:49:45;;;;;;;8.53;6.90;;;16.00;77.00;;;;;;2615336;47;20430;-77
2022/10/19 15:55:33;;;;;;;6.80;6.40;;;15.00;93.70;;;;;;2616944;54;20154;-78
2022/10/19 16:01:28;;;;;;;7.30;5.97;;;14.60;98.40;;;;;;2616914;39;20523;-77
2022/10/19 16:13:31;;;;;;;7.53;6.83;;;13.90;99.90;;;;;;2616706;54;20388;-77
2022/10/19 16:19:18;;;;;;;5.93;5.50;;;13.70;99.90;;;;;;2616825;54;20139;-78
2022/10/19 16:25:06;;;;;;;6.23;5.63;;;13.40;99.90;;;;;;2616803;54;20119;-78
2022/10/19 16:30:55;;;;;;;7.43;6.20;;;13.20;99.90;;;;;;2617278;54;20129;-78
2022/10/19 16:36:44;;;;;;;7.90;5.53;;;13.00;99.90;;;;;;2617081;54;20394;-76
2022/10/19 16:42:33;;;;;;;6.10;5.57;;;12.80;99.90;;;;;;2616743;54;20415;-79
2022/10/19 16:48:22;;;;;;;5.67;5.27;;;12.60;99.90;;;;;;2615028;54;20466;-79
2022/10/19 16:54:11;;;;;;;6.53;5.70;;;12.50;99.90;;;;;;2616620;54;20367;-76
2022/10/19 16:59:58;;;;;;;6.10;5.50;;;12.20;99.90;;;;;;2616907;54;20350;-78
2022/10/19 17:05:46;;;;;;;7.00;6.40;;;12.20;99.90;;;;;;2616614;54;20127;-77
2022/10/19 17:11:36;;;;;;;10.57;7.80;;;12.10;99.90;;;;;;2614795;54;20138;-79
2022/10/19 17:17:24;;;;;;;8.13;6.27;;;12.00;99.90;;;;;;2615365;54;20367;-78
2022/10/19 17:23:12;;;;;;;7.10;5.97;;;12.00;99.90;;;;;;2613933;54;20174;-76
2022/10/19 17:29:00;;;;;;;9.50;6.10;;;11.90;99.90;;;;;;2613638;54;20169;-81
2022/10/19 17:34:48;;;;;;;7.70;6.10;;;11.80;99.90;;;;;;2614424;54;20939;-80
2022/10/19 17:40:36;;;;;;;8.53;6.87;;;11.70;99.90;;;;;;2613787;54;20182;-76
2022/10/19 17:46:28;;;;;;;10.50;6.87;;;11.70;99.90;;;;;;2616776;54;20162;-76
2022/10/19 17:52:15;;;;;;;7.17;5.73;;;11.50;99.90;;;;;;2616703;54;20495;-76
2022/10/19 17:58:03;;;;;;;7.90;7.20;;;11.40;99.90;;;;;;2616690;54;20122;-76
2022/10/19 18:03:51;;;;;;;10.23;6.40;;;11.20;99.90;;;;;;2615894;54;20135;-75
2022/10/19 18:09:39;;;;;;;12.33;6.17;;;11.20;99.90;;;;;;2616613;54;20142;-77
2022/10/19 18:15:26;;;;;;;7.20;6.50;;;11.10;99.90;;;;;;2616858;54;20134;-77
2022/10/19 18:21:21;;;;;;;11.63;6.37;;;11.10;99.90;;;;;;2615730;54;20633;-77
2022/10/19 18:27:11;;;;;;;8.93;6.70;;;11.00;99.90;;;;;;2616295;39;20768;-77
2022/10/19 18:32:59;;;;;;;6.23;5.63;;;10.80;99.90;;;;;;2617380;54;20356;-77
2022/10/19 18:38:56;;;;;;;8.90;6.97;;;10.80;99.90;;;;;;2615896;54;20130;-76
2022/10/19 18:44:46;;;;;;;10.73;7.40;;;10.70;99.90;;;;;;2616196;54;20387;-77
2022/10/19 18:47:20;;;;;;;9.70;6.67;;;10.70;99.90;;;;;;2615347;47;20446;-78
2022/10/19 18:49:46;;;;;;;7.20;6.60;;;10.70;99.90;;;;;;2615151;47;20446;-77
2022/10/19 18:55:33;;;;;;;12.90;6.20;;;10.60;99.90;;;;;;2616238;54;20230;-79
2022/10/19 19:01:23;;;;;;;8.20;6.90;;;10.50;99.90;;;;;;2616587;54;20123;-79
2022/10/19 19:07:11;;;;;;;8.70;7.80;;;10.50;99.90;;;;;;2617268;54;20394;-80
2022/10/19 19:12:59;;;;;;;7.17;6.47;;;10.30;99.90;;;;;;2618141;31;20536;-78
2022/10/19 19:18:46;;;;;;;10.33;7.00;;;10.20;99.90;;;;;;2616681;54;20134;-81
2022/10/19 19:24:35;;;;;;;10.53;7.70;;;10.00;99.90;;;;;;2616308;54;20142;-76
2022/10/19 19:30:22;;;;;;;11.17;7.83;;;9.90;99.90;;;;;;2616540;54;20130;-77
2022/10/19 19:36:12;;;;;;;8.83;7.90;;;9.70;99.90;;;;;;2616444;54;20153;-77